METAR Data
IDs: Format: Raw Decoded Include TAF

Data at: 0727 UTC 11 Dec 2018

PAHO 110653Z AUTO 06003KT 10SM BKN100 OVC110 01/01 A2854 RMK AO2 SLP667 T00060006 TSNO $
PAHO 110553Z 05006KT 10SM OVC070 01/00 A2855 RMK AO2 SNE33 SLP669 P0001 60010 T00060000 10039 20006 58004 $
PAHO 110526Z 06006KT 5SM -SN BR FEW003 BKN039 OVC070 01/00 A2856 RMK AO2 P0001 T00060000
PAHO 110517Z 06006KT 2 1/2SM -SN BR FEW004 SCT010 OVC032 01/00 A2856 RMK AO2 P0000 T00060000
PAHO 110514Z 06006KT 3SM -SN BR FEW004 SCT010 OVC023 01/00 A2856 RMK AO2 P0000 T00060000
PAHO 110502Z 05005KT 5SM -SN BR FEW012 OVC019 01/00 A2856 RMK AO2 P0000 T00060000
PAHO 110453Z 05004KT 3SM -SN BR BKN011 OVC017 01/00 A2857 RMK AO2 RAE12SNB12 SLP675 P0008 T00060000
PAHO 110451Z 05004KT 3SM -SN BR OVC011 01/00 A2857 RMK AO2 RAE12SNB12 P0008
PAHO 110440Z 06004KT 1SM -SN BR VV010 01/M01 A2857 RMK AO2 RAE12SNB12 P0007 T00061006
PAHO 110428Z 00000KT 3/4SM -SN BR VV009 01/00 A2857 RMK AO2 RAE12SNB12 P0005 T00060000
PAHO 110421Z 00000KT 1 1/2SM -SN BR FEW006 OVC011 01/00 A2858 RMK AO2 RAE12SNB12 P0003 T00110000
PAHO 110414Z 00000KT 4SM -SN BR FEW008 OVC013 01/00 A2858 RMK AO2 RAE12SNB12 P0002 T00110000
PAHO 110353Z 00000KT 7SM -RA FEW011 OVC021 02/01 A2858 RMK AO2 UPB25E32B43E48RAB48SNB32E43 SLP678 P0001 T00220006
PAHO 110338Z 20006KT 6SM -SN BR FEW011 BKN027 OVC035 02/00 A2858 RMK AO2 UPB25E32SNB32 P0001 T00220000
PAHO 110253Z 08011KT 10SM OVC055 02/M01 A2856 RMK AO2 SLP673 T00221006 56031
PAHO 110153Z 06009KT 10SM OVC060 03/M02 A2857 RMK AO2 SLP675 T00331017
PAHO 110053Z 06008KT 10SM OVC060 02/M01 A2861 RMK AO2 SLP688 T00221006
PAHO 102353Z 06008KT 10SM OVC050 03/M01 A2866 RMK AO2 SLP704 T00281006 10033 21017 58042
PAHO 102253Z 06011KT 10SM BKN060 OVC075 02/M01 A2870 RMK AO2 SLP721 T00221006
PAHO 102153Z 08011KT 10SM BKN045 OVC060 03/M01 A2875 RMK AO2 SLP735 VCSH CIG LOWER E-S T00281006
PAHO 102053Z 05005KT 10SM FEW055 SCT070 02/M01 A2878 RMK AO2 SLP746 T00171011 58029
PAHO 101953Z 06008KT 10SM BKN100 01/M01 A2881 RMK AO2 SLP758 T00111011
PAHO 101853Z 04003KT 10SM FEW055 01/M02 A2884 RMK AO2 SLP765 T00061022
PAHO 101753Z 09006KT 10SM CLR 00/M02 A2886 RMK AO2 SLP775 T00001017 10011 21017 56022
PAHO 101653Z 03004KT 10SM CLR 00/M02 A2888 RMK AO2 SLP780 T00001022
PAHO 101553Z 04003KT 10SM FEW043 M01/M03 A2891 RMK AO2 SLP790 T10061028
PAHO 101453Z AUTO 07006KT 10SM SCT050 M01/M03 A2893 RMK AO2 SLP796 T10061028 58000 TSNO
PAHO 101353Z AUTO 00000KT 10SM BKN060 M01/M03 A2893 RMK AO2 SLP797 T10061028 TSNO
PAHO 101253Z AUTO 00000KT 10SM BKN055 M01/M04 A2893 RMK AO2 SLP797 T10111039 TSNO
PAHO 101153Z AUTO 00000KT 10SM FEW065 02/M03 A2893 RMK AO2 SLP797 T00171033 10033 20006 58010 TSNO
PAHO 101053Z AUTO 06006KT 10SM BKN065 02/M03 A2895 RMK AO2 SLP805 T00221033 TSNO
PAHO 100953Z AUTO 04006KT 10SM CLR 01/M04 A2895 RMK AO2 SLP803 T00111044 TSNO
PAHO 100853Z AUTO 03004KT 10SM CLR 02/M04 A2896 RMK AO2 SLP807 T00171044 400331039 58007 TSNO
PAHO 100753Z AUTO 06008KT 10SM CLR 03/M04 A2897 RMK AO2 SLP813 T00281044 TSNO
PAHO 100653Z AUTO 06005KT 10SM FEW050 02/M04 A2898 RMK AO2 SLP814 T00171044 TSNO
PAHO 100553Z 05007KT 10SM FEW060 02/M04 A2898 RMK AO2 SLP815 T00171044 10022 20000 56012
PAHO 100453Z 05011KT 10SM BKN110 02/M04 A2899 RMK AO2 SLP817 T00221039
PAHO 100353Z 05007KT 10SM FEW065 SCT080 OVC100 02/M04 A2900 RMK AO2 SLP822 T00171044
PAHO 100253Z 06010KT 10SM OVC095 01/M04 A2902 RMK AO2 SLP826 T00111044 56023
PAHO 100153Z 06009KT 10SM SCT080 OVC100 01/M05 A2903 RMK AO2 SLP833 T00111050
PAHO 100053Z 04007KT 10SM OVC050 01/M06 A2906 RMK AO2 SLP843 T00061061
PAHO 092353Z 07009KT 10SM BKN060 OVC075 00/M07 A2908 RMK AO2 SLP850 T00001067 10000 21039 58017
PAHO 092253Z 05009KT 10SM BKN120 M01/M07 A2911 RMK AO2 SLP859 T10061067
PAHO 092153Z 04007KT 10SM CLR M01/M06 A2913 RMK AO2 SLP864 T10111056
PAHO 092053Z 05007KT 10SM CLR M01/M06 A2914 RMK AO2 SLP867 T10111061 58006
PAHO 091953Z 02003KT 10SM CLR M03/M05 A2914 RMK AO2 SLP870 T10281050